Terminal Aerodrome Forecast
Issued by NWS Cleveland, OH

Home | Current Version | Previous Version | Graphics & Text | Print | Product List | Glossary On
Versions: 1 2 3 4 5 6 7 8 9 10 11 12 13 14 15 16 17 18 19 20 21 22 23 24 25 26 27 28 29 30 31
339
FTUS41 KCLE 160253 AAA
TAFCLE
TAF AMD
KCLE 160253Z 1603/1706 VRB03KT P6SM SCT100 OVC200
     FM161500 12005KT P6SM BKN050 OVC100
     FM162300 09005KT 4SM -RA BR SCT008 OVC015=

USA.gov is the U.S. government's official web portal to all federal, state and local government web resources and services.